sensor_id;sensor_type;location;lat;lon;timestamp;pressure;altitude;pressure_sealevel;temperature;humidity
56912;BME280;42800;53.928;27.662;2022-12-20T00:02:04;99702.06;;;-9.86;100.00
56912;BME280;42800;53.928;27.662;2022-12-20T00:04:30;99686.91;;;-9.79;100.00
56912;BME280;42800;53.928;27.662;2022-12-20T00:06:57;99685.38;;;-9.68;100.00
56912;BME280;42800;53.928;27.662;2022-12-20T00:09:23;99653.94;;;-9.90;100.00
56912;BME280;42800;53.928;27.662;2022-12-20T00:11:50;99660.69;;;-9.69;100.00
56912;BME280;42800;53.928;27.662;2022-12-20T00:14:16;99632.28;;;-9.68;100.00
56912;BME280;42800;53.928;27.662;2022-12-20T00:16:43;99610.69;;;-9.90;100.00
56912;BME280;42800;53.928;27.662;2022-12-20T00:19:10;99618.13;;;-9.99;100.00
56912;BME280;42800;53.928;27.662;2022-12-20T00:21:37;99652.38;;;-9.98;100.00
56912;BME280;42800;53.928;27.662;2022-12-20T00:24:03;99665.44;;;-9.96;100.00
56912;BME280;42800;53.928;27.662;2022-12-20T00:26:32;99677.06;;;-9.97;100.00
56912;BME280;42800;53.928;27.662;2022-12-20T00:28:59;99692.78;;;-9.96;100.00
56912;BME280;42800;53.928;27.662;2022-12-20T00:31:27;99698.13;;;-10.02;100.00
56912;BME280;42800;53.928;27.662;2022-12-20T00:33:56;99720.09;;;-9.95;100.00
56912;BME280;42800;53.928;27.662;2022-12-20T00:36:23;99740.28;;;-9.69;100.00
56912;BME280;42800;53.928;27.662;2022-12-20T00:38:51;99746.66;;;-9.77;100.00
56912;BME280;42800;53.928;27.662;2022-12-20T00:41:19;99732.97;;;-9.74;100.00
56912;BME280;42800;53.928;27.662;2022-12-20T00:43:47;99711.09;;;-9.69;100.00
56912;BME280;42800;53.928;27.662;2022-12-20T00:46:15;99709.03;;;-9.67;100.00
56912;BME280;42800;53.928;27.662;2022-12-20T00:48:42;99695.97;;;-9.68;100.00
56912;BME280;42800;53.928;27.662;2022-12-20T00:51:11;99697.75;;;-9.44;100.00
56912;BME280;42800;53.928;27.662;2022-12-20T00:53:38;99672.84;;;-9.61;100.00
56912;BME280;42800;53.928;27.662;2022-12-20T00:56:05;99675.94;;;-9.46;100.00
56912;BME280;42800;53.928;27.662;2022-12-20T00:58:32;99667.44;;;-9.36;100.00
56912;BME280;42800;53.928;27.662;2022-12-20T01:00:59;99626.31;;;-9.45;100.00
56912;BME280;42800;53.928;27.662;2022-12-20T01:03:26;99621.53;;;-9.55;100.00
56912;BME280;42800;53.928;27.662;2022-12-20T01:05:54;99610.09;;;-9.56;100.00
56912;BME280;42800;53.928;27.662;2022-12-20T01:08:22;99628.09;;;-9.39;100.00
56912;BME280;42800;53.928;27.662;2022-12-20T01:10:57;99608.81;;;-9.35;100.00
56912;BME280;42800;53.928;27.662;2022-12-20T01:13:24;99600.44;;;-9.20;100.00
56912;BME280;42800;53.928;27.662;2022-12-20T01:15:50;99579.53;;;-9.28;100.00
56912;BME280;42800;53.928;27.662;2022-12-20T01:18:16;99575.25;;;-9.29;100.00
56912;BME280;42800;53.928;27.662;2022-12-20T01:20:42;99581.09;;;-9.09;100.00
56912;BME280;42800;53.928;27.662;2022-12-20T01:23:09;99574.16;;;-9.10;100.00
56912;BME280;42800;53.928;27.662;2022-12-20T01:25:35;99554.88;;;-9.05;100.00
56912;BME280;42800;53.928;27.662;2022-12-20T01:28:02;99541.13;;;-9.14;100.00
56912;BME280;42800;53.928;27.662;2022-12-20T01:30:28;99537.09;;;-9.05;100.00
56912;BME280;42800;53.928;27.662;2022-12-20T01:32:54;99534.59;;;-8.99;100.00
56912;BME280;42800;53.928;27.662;2022-12-20T01:35:21;99542.66;;;-8.94;100.00
56912;BME280;42800;53.928;27.662;2022-12-20T01:37:47;99530.09;;;-8.87;100.00
56912;BME280;42800;53.928;27.662;2022-12-20T01:40:13;99512.88;;;-8.85;100.00
56912;BME280;42800;53.928;27.662;2022-12-20T01:42:41;99508.38;;;-8.84;100.00
56912;BME280;42800;53.928;27.662;2022-12-20T01:45:12;99485.03;;;-8.82;100.00
56912;BME280;42800;53.928;27.662;2022-12-20T01:47:42;99481.56;;;-8.71;100.00
56912;BME280;42800;53.928;27.662;2022-12-20T01:50:08;99470.72;;;-8.58;100.00
56912;BME280;42800;53.928;27.662;2022-12-20T01:52:36;99464.00;;;-8.60;100.00
56912;BME280;42800;53.928;27.662;2022-12-20T01:55:09;99448.28;;;-8.62;100.00
56912;BME280;42800;53.928;27.662;2022-12-20T01:57:40;99454.19;;;-8.71;100.00
56912;BME280;42800;53.928;27.662;2022-12-20T02:00:09;99461.34;;;-8.48;100.00
56912;BME280;42800;53.928;27.662;2022-12-20T02:02:36;99438.94;;;-8.52;100.00
56912;BME280;42800;53.928;27.662;2022-12-20T02:05:03;99438.09;;;-8.41;100.00
56912;BME280;42800;53.928;27.662;2022-12-20T02:07:30;99427.06;;;-8.33;100.00
56912;BME280;42800;53.928;27.662;2022-12-20T02:10:00;99398.50;;;-8.26;100.00
56912;BME280;42800;53.928;27.662;2022-12-20T02:12:31;99396.78;;;-8.32;100.00
56912;BME280;42800;53.928;27.662;2022-12-20T02:15:16;99405.88;;;-8.28;100.00
56912;BME280;42800;53.928;27.662;2022-12-20T02:17:52;99410.34;;;-8.17;100.00
56912;BME280;42800;53.928;27.662;2022-12-20T02:26:50;99381.28;;;-8.07;100.00
56912;BME280;42800;53.928;27.662;2022-12-20T02:29:24;99384.06;;;-8.01;100.00
56912;BME280;42800;53.928;27.662;2022-12-20T02:31:59;99375.81;;;-8.00;100.00
56912;BME280;42800;53.928;27.662;2022-12-20T02:34:28;99369.16;;;-8.02;100.00
56912;BME280;42800;53.928;27.662;2022-12-20T02:36:56;99358.41;;;-8.08;100.00
56912;BME280;42800;53.928;27.662;2022-12-20T02:39:22;99356.88;;;-8.03;100.00
56912;BME280;42800;53.928;27.662;2022-12-20T02:41:54;99374.53;;;-7.97;100.00
56912;BME280;42800;53.928;27.662;2022-12-20T02:44:24;99382.66;;;-8.04;100.00
56912;BME280;42800;53.928;27.662;2022-12-20T02:47:14;99407.72;;;-7.88;100.00
56912;BME280;42800;53.928;27.662;2022-12-20T02:49:44;99400.66;;;-7.83;100.00
56912;BME280;42800;53.928;27.662;2022-12-20T02:52:12;99377.72;;;-7.84;100.00
56912;BME280;42800;53.928;27.662;2022-12-20T02:54:39;99363.69;;;-7.96;100.00
56912;BME280;42800;53.928;27.662;2022-12-20T02:57:10;99372.50;;;-7.78;100.00
56912;BME280;42800;53.928;27.662;2022-12-20T02:59:44;99368.56;;;-7.76;100.00
56912;BME280;42800;53.928;27.662;2022-12-20T03:02:13;99354.78;;;-7.73;100.00
56912;BME280;42800;53.928;27.662;2022-12-20T03:04:41;99355.97;;;-7.64;100.00
56912;BME280;42800;53.928;27.662;2022-12-20T03:07:10;99334.91;;;-7.82;100.00
56912;BME280;42800;53.928;27.662;2022-12-20T03:09:38;99337.75;;;-7.55;100.00
56912;BME280;42800;53.928;27.662;2022-12-20T03:12:06;99339.28;;;-7.59;100.00
56912;BME280;42800;53.928;27.662;2022-12-20T03:14:32;99333.63;;;-7.63;100.00
56912;BME280;42800;53.928;27.662;2022-12-20T03:16:59;99337.09;;;-7.45;100.00
56912;BME280;42800;53.928;27.662;2022-12-20T03:19:26;99330.66;;;-7.49;100.00
56912;BME280;42800;53.928;27.662;2022-12-20T03:21:52;99343.88;;;-7.38;100.00
56912;BME280;42800;53.928;27.662;2022-12-20T03:24:18;99335.81;;;-7.43;100.00
56912;BME280;42800;53.928;27.662;2022-12-20T03:26:44;99314.16;;;-7.46;100.00
56912;BME280;42800;53.928;27.662;2022-12-20T03:29:11;99310.53;;;-7.40;100.00
56912;BME280;42800;53.928;27.662;2022-12-20T03:31:37;99298.28;;;-7.41;100.00
56912;BME280;42800;53.928;27.662;2022-12-20T03:34:04;99321.25;;;-7.18;100.00
56912;BME280;42800;53.928;27.662;2022-12-20T03:36:31;99295.66;;;-7.19;100.00
56912;BME280;42800;53.928;27.662;2022-12-20T03:38:58;99289.59;;;-7.15;100.00
56912;BME280;42800;53.928;27.662;2022-12-20T03:41:26;99271.50;;;-7.13;100.00
56912;BME280;42800;53.928;27.662;2022-12-20T03:43:52;99252.41;;;-7.04;100.00
56912;BME280;42800;53.928;27.662;2022-12-20T03:46:18;99249.44;;;-7.08;100.00
56912;BME280;42800;53.928;27.662;2022-12-20T03:48:45;99260.22;;;-6.98;100.00
56912;BME280;42800;53.928;27.662;2022-12-20T03:51:11;99228.50;;;-6.99;100.00
56912;BME280;42800;53.928;27.662;2022-12-20T03:53:38;99232.81;;;-6.93;100.00
56912;BME280;42800;53.928;27.662;2022-12-20T03:56:05;99247.16;;;-6.99;100.00
56912;BME280;42800;53.928;27.662;2022-12-20T03:58:31;99238.91;;;-6.98;100.00
56912;BME280;42800;53.928;27.662;2022-12-20T04:00:57;99238.69;;;-6.96;100.00
56912;BME280;42800;53.928;27.662;2022-12-20T04:03:24;99252.53;;;-6.94;100.00
56912;BME280;42800;53.928;27.662;2022-12-20T04:05:50;99257.06;;;-6.95;100.00
56912;BME280;42800;53.928;27.662;2022-12-20T04:08:16;99252.94;;;-6.85;100.00
56912;BME280;42800;53.928;27.662;2022-12-20T04:10:43;99263.59;;;-6.85;100.00
56912;BME280;42800;53.928;27.662;2022-12-20T04:13:27;99276.13;;;-6.86;100.00
56912;BME280;42800;53.928;27.662;2022-12-20T04:15:54;99258.13;;;-6.96;100.00
56912;BME280;42800;53.928;27.662;2022-12-20T04:18:20;99250.31;;;-6.80;100.00
56912;BME280;42800;53.928;27.662;2022-12-20T04:20:51;99227.88;;;-6.84;100.00
56912;BME280;42800;53.928;27.662;2022-12-20T04:23:17;99212.19;;;-6.81;100.00
56912;BME280;42800;53.928;27.662;2022-12-20T04:25:44;99203.00;;;-6.90;100.00
56912;BME280;42800;53.928;27.662;2022-12-20T04:28:10;99197.69;;;-6.90;100.00
56912;BME280;42800;53.928;27.662;2022-12-20T04:30:37;99205.59;;;-6.73;100.00
56912;BME280;42800;53.928;27.662;2022-12-20T04:33:03;99185.69;;;-6.93;100.00
56912;BME280;42800;53.928;27.662;2022-12-20T04:35:29;99181.16;;;-6.92;100.00
56912;BME280;42800;53.928;27.662;2022-12-20T04:37:55;99202.31;;;-6.80;100.00
56912;BME280;42800;53.928;27.662;2022-12-20T04:40:21;99193.28;;;-6.79;100.00
56912;BME280;42800;53.928;27.662;2022-12-20T04:42:48;99192.78;;;-6.76;100.00
56912;BME280;42800;53.928;27.662;2022-12-20T04:45:15;99195.69;;;-6.51;100.00
56912;BME280;42800;53.928;27.662;2022-12-20T04:47:41;99187.97;;;-6.52;100.00
56912;BME280;42800;53.928;27.662;2022-12-20T04:50:08;99174.75;;;-6.64;100.00
56912;BME280;42800;53.928;27.662;2022-12-20T04:52:34;99187.78;;;-6.41;100.00
56912;BME280;42800;53.928;27.662;2022-12-20T04:55:18;99163.91;;;-6.57;100.00
56912;BME280;42800;53.928;27.662;2022-12-20T04:57:44;99152.94;;;-6.61;100.00
56912;BME280;42800;53.928;27.662;2022-12-20T05:00:12;99162.97;;;-6.41;100.00
56912;BME280;42800;53.928;27.662;2022-12-20T05:02:40;99146.88;;;-6.51;100.00
56912;BME280;42800;53.928;27.662;2022-12-20T05:05:07;99140.25;;;-6.49;100.00
56912;BME280;42800;53.928;27.662;2022-12-20T05:07:33;99147.41;;;-6.22;100.00
56912;BME280;42800;53.928;27.662;2022-12-20T05:09:59;99127.28;;;-6.35;100.00
56912;BME280;42800;53.928;27.662;2022-12-20T05:12:25;99118.28;;;-6.29;100.00
56912;BME280;42800;53.928;27.662;2022-12-20T05:14:51;99138.09;;;-6.14;100.00
56912;BME280;42800;53.928;27.662;2022-12-20T05:17:18;99115.81;;;-6.35;100.00
56912;BME280;42800;53.928;27.662;2022-12-20T05:19:45;99111.28;;;-6.35;100.00
56912;BME280;42800;53.928;27.662;2022-12-20T05:22:11;99125.56;;;-6.14;100.00
56912;BME280;42800;53.928;27.662;2022-12-20T05:24:55;99101.59;;;-6.09;100.00
56912;BME280;42800;53.928;27.662;2022-12-20T05:27:40;99086.75;;;-6.32;100.00
56912;BME280;42800;53.928;27.662;2022-12-20T05:30:08;99099.94;;;-6.15;100.00
56912;BME280;42800;53.928;27.662;2022-12-20T05:32:35;99110.00;;;-6.27;100.00
56912;BME280;42800;53.928;27.662;2022-12-20T05:35:01;99129.47;;;-6.27;100.00
56912;BME280;42800;53.928;27.662;2022-12-20T05:37:27;99151.78;;;-6.06;100.00
56912;BME280;42800;53.928;27.662;2022-12-20T05:39:54;99169.34;;;-6.15;100.00
56912;BME280;42800;53.928;27.662;2022-12-20T05:42:20;99212.31;;;-6.11;100.00
56912;BME280;42800;53.928;27.662;2022-12-20T05:44:46;99237.06;;;-6.21;100.00
56912;BME280;42800;53.928;27.662;2022-12-20T05:47:13;99267.88;;;-6.35;100.00
56912;BME280;42800;53.928;27.662;2022-12-20T05:49:41;99340.63;;;-6.18;100.00
56912;BME280;42800;53.928;27.662;2022-12-20T05:52:07;99362.44;;;-6.26;100.00
56912;BME280;42800;53.928;27.662;2022-12-20T05:54:34;99409.44;;;-6.42;100.00
56912;BME280;42800;53.928;27.662;2022-12-20T05:57:00;99480.88;;;-6.27;100.00
56912;BME280;42800;53.928;27.662;2022-12-20T05:59:26;99544.81;;;-6.16;100.00
56912;BME280;42800;53.928;27.662;2022-12-20T06:01:52;99584.84;;;-6.16;100.00
56912;BME280;42800;53.928;27.662;2022-12-20T06:04:19;99613.25;;;-6.26;100.00
56912;BME280;42800;53.928;27.662;2022-12-20T06:06:46;99645.44;;;-6.16;100.00
56912;BME280;42800;53.928;27.662;2022-12-20T06:09:12;99669.44;;;-6.16;100.00
56912;BME280;42800;53.928;27.662;2022-12-20T06:11:39;99701.31;;;-6.09;100.00
56912;BME280;42800;53.928;27.662;2022-12-20T06:14:05;99721.19;;;-6.17;100.00
56912;BME280;42800;53.928;27.662;2022-12-20T06:16:32;99748.94;;;-6.01;100.00
56912;BME280;42800;53.928;27.662;2022-12-20T06:18:58;99767.78;;;-6.08;100.00
56912;BME280;42800;53.928;27.662;2022-12-20T06:21:25;99775.31;;;-6.05;100.00
56912;BME280;42800;53.928;27.662;2022-12-20T06:23:53;99799.19;;;-5.98;100.00
56912;BME280;42800;53.928;27.662;2022-12-20T06:26:20;99792.22;;;-6.16;100.00
56912;BME280;42800;53.928;27.662;2022-12-20T06:28:48;99821.13;;;-5.96;100.00
56912;BME280;42800;53.928;27.662;2022-12-20T06:31:17;99828.44;;;-5.86;100.00
56912;BME280;42800;53.928;27.662;2022-12-20T06:33:44;99836.75;;;-5.71;100.00
56912;BME280;42800;53.928;27.662;2022-12-20T06:36:10;99829.19;;;-5.91;100.00
56912;BME280;42800;53.928;27.662;2022-12-20T06:38:36;99832.38;;;-5.94;100.00
56912;BME280;42800;53.928;27.662;2022-12-20T06:41:04;99845.53;;;-5.87;100.00
56912;BME280;42800;53.928;27.662;2022-12-20T06:43:30;99862.03;;;-5.91;100.00
56912;BME280;42800;53.928;27.662;2022-12-20T06:45:56;99864.94;;;-5.92;100.00
56912;BME280;42800;53.928;27.662;2022-12-20T06:48:22;99870.16;;;-5.85;100.00
56912;BME280;42800;53.928;27.662;2022-12-20T06:50:49;99858.56;;;-5.91;100.00
56912;BME280;42800;53.928;27.662;2022-12-20T06:53:15;99875.56;;;-5.97;100.00
56912;BME280;42800;53.928;27.662;2022-12-20T06:55:41;99888.25;;;-5.87;100.00
56912;BME280;42800;53.928;27.662;2022-12-20T06:58:08;99887.78;;;-5.84;100.00
56912;BME280;42800;53.928;27.662;2022-12-20T07:00:35;99891.50;;;-5.85;100.00
56912;BME280;42800;53.928;27.662;2022-12-20T07:03:01;99901.81;;;-5.60;100.00
56912;BME280;42800;53.928;27.662;2022-12-20T07:05:27;99902.56;;;-5.65;100.00
56912;BME280;42800;53.928;27.662;2022-12-20T07:07:53;99901.97;;;-5.67;100.00
56912;BME280;42800;53.928;27.662;2022-12-20T07:10:20;99888.91;;;-5.80;100.00
56912;BME280;42800;53.928;27.662;2022-12-20T07:12:46;99887.75;;;-5.73;100.00
56912;BME280;42800;53.928;27.662;2022-12-20T07:15:13;99885.63;;;-5.71;100.00
56912;BME280;42800;53.928;27.662;2022-12-20T07:17:40;99885.41;;;-5.69;100.00
56912;BME280;42800;53.928;27.662;2022-12-20T07:20:07;99889.69;;;-5.51;100.00
56912;BME280;42800;53.928;27.662;2022-12-20T07:22:33;99885.00;;;-5.61;100.00
56912;BME280;42800;53.928;27.662;2022-12-20T07:24:59;99887.34;;;-5.64;100.00
56912;BME280;42800;53.928;27.662;2022-12-20T07:27:26;99889.13;;;-5.53;100.00
56912;BME280;42800;53.928;27.662;2022-12-20T07:29:52;99887.84;;;-5.51;100.00
56912;BME280;42800;53.928;27.662;2022-12-20T07:32:19;99887.66;;;-5.61;100.00
56912;BME280;42800;53.928;27.662;2022-12-20T07:34:45;99889.81;;;-5.46;100.00
56912;BME280;42800;53.928;27.662;2022-12-20T07:37:11;99892.38;;;-5.51;100.00
56912;BME280;42800;53.928;27.662;2022-12-20T07:39:38;99909.81;;;-5.32;100.00
56912;BME280;42800;53.928;27.662;2022-12-20T07:42:06;99902.44;;;-5.25;100.00
56912;BME280;42800;53.928;27.662;2022-12-20T07:44:33;99892.38;;;-5.34;100.00
56912;BME280;42800;53.928;27.662;2022-12-20T07:47:00;99894.00;;;-5.33;100.00
56912;BME280;42800;53.928;27.662;2022-12-20T07:49:27;99882.50;;;-5.51;100.00
56912;BME280;42800;53.928;27.662;2022-12-20T07:51:55;99873.09;;;-5.53;100.00
56912;BME280;42800;53.928;27.662;2022-12-20T07:54:25;99884.84;;;-5.37;100.00
56912;BME280;42800;53.928;27.662;2022-12-20T07:56:56;99872.78;;;-5.40;100.00
56912;BME280;42800;53.928;27.662;2022-12-20T07:59:27;99886.06;;;-5.28;100.00
56912;BME280;42800;53.928;27.662;2022-12-20T08:01:55;99887.44;;;-5.09;100.00
56912;BME280;42800;53.928;27.662;2022-12-20T08:04:24;99875.69;;;-5.25;100.00
56912;BME280;42800;53.928;27.662;2022-12-20T08:06:53;99866.13;;;-5.04;100.00
56912;BME280;42800;53.928;27.662;2022-12-20T08:09:23;99866.59;;;-5.07;100.00
56912;BME280;42800;53.928;27.662;2022-12-20T08:11:53;99858.53;;;-5.12;100.00
56912;BME280;42800;53.928;27.662;2022-12-20T08:14:20;99860.69;;;-4.92;100.00
56912;BME280;42800;53.928;27.662;2022-12-20T08:16:46;99853.00;;;-5.05;100.00
56912;BME280;42800;53.928;27.662;2022-12-20T08:19:12;99853.66;;;-4.98;100.00
56912;BME280;42800;53.928;27.662;2022-12-20T08:21:39;99853.16;;;-4.95;100.00
56912;BME280;42800;53.928;27.662;2022-12-20T08:24:06;99854.09;;;-4.84;100.00
56912;BME280;42800;53.928;27.662;2022-12-20T08:26:36;99850.25;;;-4.71;100.00
56912;BME280;42800;53.928;27.662;2022-12-20T08:29:03;99858.56;;;-4.73;100.00
56912;BME280;42800;53.928;27.662;2022-12-20T08:31:29;99844.22;;;-4.84;100.00
56912;BME280;42800;53.928;27.662;2022-12-20T08:33:55;99844.03;;;-4.77;100.00
56912;BME280;42800;53.928;27.662;2022-12-20T08:36:21;99853.59;;;-4.81;100.00
56912;BME280;42800;53.928;27.662;2022-12-20T08:38:48;99849.06;;;-4.81;100.00
56912;BME280;42800;53.928;27.662;2022-12-20T08:41:16;99843.97;;;-4.60;100.00
56912;BME280;42800;53.928;27.662;2022-12-20T08:43:42;99843.66;;;-4.64;100.00
56912;BME280;42800;53.928;27.662;2022-12-20T08:46:09;99841.56;;;-4.62;100.00
56912;BME280;42800;53.928;27.662;2022-12-20T08:48:36;99846.28;;;-4.47;100.00
56912;BME280;42800;53.928;27.662;2022-12-20T08:51:04;99849.41;;;-4.55;100.00
56912;BME280;42800;53.928;27.662;2022-12-20T08:53:32;99844.56;;;-4.36;100.00
56912;BME280;42800;53.928;27.662;2022-12-20T08:56:03;99840.91;;;-4.03;100.00
56912;BME280;42800;53.928;27.662;2022-12-20T08:58:30;99835.59;;;-3.98;100.00
56912;BME280;42800;53.928;27.662;2022-12-20T09:00:57;99843.44;;;-4.13;100.00
56912;BME280;42800;53.928;27.662;2022-12-20T09:03:24;99842.94;;;-4.10;100.00
56912;BME280;42800;53.928;27.662;2022-12-20T09:05:51;99836.00;;;-4.11;100.00
56912;BME280;42800;53.928;27.662;2022-12-20T09:08:17;99842.34;;;-3.90;100.00
56912;BME280;42800;53.928;27.662;2022-12-20T09:10:43;99838.28;;;-3.98;100.00
56912;BME280;42800;53.928;27.662;2022-12-20T09:13:09;99830.63;;;-4.11;100.00
56912;BME280;42800;53.928;27.662;2022-12-20T09:15:37;99825.56;;;-3.81;100.00
56912;BME280;42800;53.928;27.662;2022-12-20T09:18:04;99816.97;;;-3.56;100.00
56912;BME280;42800;53.928;27.662;2022-12-20T09:20:30;99817.91;;;-3.35;100.00
56912;BME280;42800;53.928;27.662;2022-12-20T09:22:57;99818.84;;;-3.19;100.00
56912;BME280;42800;53.928;27.662;2022-12-20T09:25:24;99830.16;;;-3.49;100.00
56912;BME280;42800;53.928;27.662;2022-12-20T09:27:50;99827.00;;;-3.73;100.00
56912;BME280;42800;53.928;27.662;2022-12-20T09:30:17;99814.94;;;-3.70;100.00
56912;BME280;42800;53.928;27.662;2022-12-20T09:32:44;99807.91;;;-3.49;100.00
56912;BME280;42800;53.928;27.662;2022-12-20T09:35:11;99804.66;;;-3.51;100.00
56912;BME280;42800;53.928;27.662;2022-12-20T09:37:37;99792.34;;;-3.47;100.00
56912;BME280;42800;53.928;27.662;2022-12-20T09:40:04;99785.72;;;-3.40;100.00
56912;BME280;42800;53.928;27.662;2022-12-20T09:42:31;99779.72;;;-3.15;100.00
56912;BME280;42800;53.928;27.662;2022-12-20T09:45:00;99789.06;;;-3.60;100.00
56912;BME280;42800;53.928;27.662;2022-12-20T09:47:28;99787.03;;;-3.00;100.00
56912;BME280;42800;53.928;27.662;2022-12-20T09:49:56;99799.22;;;-3.24;100.00
56912;BME280;42800;53.928;27.662;2022-12-20T09:52:34;99789.06;;;-3.22;100.00
56912;BME280;42800;53.928;27.662;2022-12-20T09:55:17;99771.81;;;-3.32;100.00
56912;BME280;42800;53.928;27.662;2022-12-20T09:57:55;99768.00;;;-2.93;100.00
56912;BME280;42800;53.928;27.662;2022-12-20T10:00:23;99772.38;;;-3.29;100.00
56912;BME280;42800;53.928;27.662;2022-12-20T10:02:49;99766.63;;;-3.06;100.00
56912;BME280;42800;53.928;27.662;2022-12-20T10:05:21;99760.69;;;-3.08;100.00
56912;BME280;42800;53.928;27.662;2022-12-20T10:07:54;99770.34;;;-3.07;100.00
56912;BME280;42800;53.928;27.662;2022-12-20T10:10:45;99764.00;;;-2.91;100.00
56912;BME280;42800;53.928;27.662;2022-12-20T10:13:25;99763.47;;;-2.88;100.00
56912;BME280;42800;53.928;27.662;2022-12-20T10:16:06;99753.13;;;-2.58;100.00
56912;BME280;42800;53.928;27.662;2022-12-20T10:18:51;99752.75;;;-2.93;100.00
56912;BME280;42800;53.928;27.662;2022-12-20T10:21:29;99731.59;;;-2.79;100.00
56912;BME280;42800;53.928;27.662;2022-12-20T10:24:00;99733.22;;;-2.73;100.00
56912;BME280;42800;53.928;27.662;2022-12-20T10:26:26;99733.03;;;-2.56;100.00
56912;BME280;42800;53.928;27.662;2022-12-20T10:28:53;99721.19;;;-2.55;100.00
56912;BME280;42800;53.928;27.662;2022-12-20T10:31:19;99724.91;;;-2.76;100.00
56912;BME280;42800;53.928;27.662;2022-12-20T10:33:46;99698.38;;;-2.63;100.00
56912;BME280;42800;53.928;27.662;2022-12-20T10:36:20;99695.63;;;-2.78;100.00
56912;BME280;42800;53.928;27.662;2022-12-20T10:38:51;99684.94;;;-2.68;100.00
56912;BME280;42800;53.928;27.662;2022-12-20T10:41:19;99677.16;;;-2.59;100.00
56912;BME280;42800;53.928;27.662;2022-12-20T10:43:49;99681.16;;;-2.67;100.00
56912;BME280;42800;53.928;27.662;2022-12-20T10:46:17;99675.00;;;-2.57;100.00
56912;BME280;42800;53.928;27.662;2022-12-20T10:48:45;99665.38;;;-2.17;100.00
56912;BME280;42800;53.928;27.662;2022-12-20T10:51:14;99688.22;;;-2.35;100.00
56912;BME280;42800;53.928;27.662;2022-12-20T10:53:50;99690.59;;;-2.59;100.00
56912;BME280;42800;53.928;27.662;2022-12-20T10:56:20;99693.53;;;-2.50;100.00
56912;BME280;42800;53.928;27.662;2022-12-20T10:58:56;99682.03;;;-2.20;100.00
56912;BME280;42800;53.928;27.662;2022-12-20T11:01:25;99685.78;;;-2.52;100.00
56912;BME280;42800;53.928;27.662;2022-12-20T11:03:55;99685.47;;;-2.61;100.00
56912;BME280;42800;53.928;27.662;2022-12-20T11:06:24;99684.16;;;-2.58;100.00
56912;BME280;42800;53.928;27.662;2022-12-20T11:08:52;99667.00;;;-2.31;100.00
56912;BME280;42800;53.928;27.662;2022-12-20T11:11:19;99674.25;;;-2.22;100.00
56912;BME280;42800;53.928;27.662;2022-12-20T11:13:47;99676.38;;;-2.54;100.00
56912;BME280;42800;53.928;27.662;2022-12-20T11:16:25;99665.91;;;-2.10;100.00
56912;BME280;42800;53.928;27.662;2022-12-20T11:19:01;99670.75;;;-2.17;100.00
56912;BME280;42800;53.928;27.662;2022-12-20T11:21:37;99658.69;;;-1.89;100.00
56912;BME280;42800;53.928;27.662;2022-12-20T11:24:11;99662.44;;;-2.05;100.00
56912;BME280;42800;53.928;27.662;2022-12-20T11:26:52;99665.13;;;-2.10;100.00
56912;BME280;42800;53.928;27.662;2022-12-20T11:29:34;99655.44;;;-2.47;100.00
56912;BME280;42800;53.928;27.662;2022-12-20T11:32:17;99634.25;;;-2.03;100.00
56912;BME280;42800;53.928;27.662;2022-12-20T11:34:51;99628.31;;;-1.90;100.00
56912;BME280;42800;53.928;27.662;2022-12-20T11:37:25;99636.91;;;-2.44;100.00
56912;BME280;42800;53.928;27.662;2022-12-20T11:40:09;99603.56;;;-1.81;100.00
56912;BME280;42800;53.928;27.662;2022-12-20T11:42:54;99613.78;;;-1.83;100.00
56912;BME280;42800;53.928;27.662;2022-12-20T11:45:29;99620.25;;;-1.90;100.00
56912;BME280;42800;53.928;27.662;2022-12-20T11:48:07;99615.44;;;-2.03;100.00
56912;BME280;42800;53.928;27.662;2022-12-20T11:50:48;99615.16;;;-2.01;100.00
56912;BME280;42800;53.928;27.662;2022-12-20T11:53:21;99610.53;;;-1.80;100.00
56912;BME280;42800;53.928;27.662;2022-12-20T11:55:54;99605.16;;;-1.80;100.00
56912;BME280;42800;53.928;27.662;2022-12-20T11:58:27;99611.09;;;-1.88;100.00
56912;BME280;42800;53.928;27.662;2022-12-20T12:00:58;99605.31;;;-1.36;100.00
56912;BME280;42800;53.928;27.662;2022-12-20T12:03:29;99628.75;;;-1.52;100.00
56912;BME280;42800;53.928;27.662;2022-12-20T12:06:00;99625.56;;;-1.59;100.00
56912;BME280;42800;53.928;27.662;2022-12-20T12:08:33;99625.50;;;-1.38;100.00
56912;BME280;42800;53.928;27.662;2022-12-20T12:11:08;99637.09;;;-1.48;100.00
56912;BME280;42800;53.928;27.662;2022-12-20T12:13:39;99637.41;;;-1.65;100.00
56912;BME280;42800;53.928;27.662;2022-12-20T12:16:10;99628.28;;;-1.69;100.00
56912;BME280;42800;53.928;27.662;2022-12-20T12:18:38;99617.69;;;-1.40;100.00
56912;BME280;42800;53.928;27.662;2022-12-20T12:21:08;99620.75;;;-1.72;100.00
56912;BME280;42800;53.928;27.662;2022-12-20T12:23:44;99611.53;;;-1.51;100.00
56912;BME280;42800;53.928;27.662;2022-12-20T12:26:19;99611.63;;;-1.76;100.00
56912;BME280;42800;53.928;27.662;2022-12-20T12:28:48;99600.09;;;-1.97;100.00
56912;BME280;42800;53.928;27.662;2022-12-20T12:31:19;99586.56;;;-1.56;100.00
56912;BME280;42800;53.928;27.662;2022-12-20T12:33:52;99576.19;;;-1.24;100.00
56912;BME280;42800;53.928;27.662;2022-12-20T12:36:34;99583.00;;;-1.36;100.00
56912;BME280;42800;53.928;27.662;2022-12-20T12:45:13;99589.59;;;-1.73;100.00
56912;BME280;42800;53.928;27.662;2022-12-20T12:47:44;99573.84;;;-1.40;100.00
56912;BME280;42800;53.928;27.662;2022-12-20T12:50:20;99572.94;;;-1.15;100.00
56912;BME280;42800;53.928;27.662;2022-12-20T12:52:49;99572.84;;;-1.00;100.00
56912;BME280;42800;53.928;27.662;2022-12-20T12:55:42;99574.22;;;-1.08;100.00
56912;BME280;42800;53.928;27.662;2022-12-20T12:58:30;99563.50;;;-1.13;100.00
56912;BME280;42800;53.928;27.662;2022-12-20T13:00:59;99545.41;;;-1.02;100.00
56912;BME280;42800;53.928;27.662;2022-12-20T13:03:42;99539.84;;;-1.16;100.00